Flight Track Log - Related Links

Times and Time Zones

All times are in EDT time to prevent confusion due to time zone crossing. See the WBR2634 flight status page for this flight to view local times or setup timezone preferences in your user account.

Time Position Orientation Groundspeed Altitude Reporting Facility
EDT Latitude Longitude Course Direction KTS MPH feet Rate Location/Type
Wed 05:31:48 PM 40.8281 -91.1442 65° Northeast 117 135 3,000  Level Chicago Center
Wed 05:32:50 PM 40.8617 -91.1358 11° North 121 139 4,200 1,113 Climbing Chicago Center
Wed 05:33:52 PM 40.8836 -91.1025 49° Northeast 130 150 5,300 1,113 Climbing Chicago Center
Wed 05:34:00 PM 40.8658 -90.7684 57° Northeast  Level FlightAware Approximate
Wed 05:34:54 PM 40.8947 -91.0547 73° East 135 155 6,500  Level Chicago Center
Wed 05:35:00 PM 40.9067 -90.7298 66° East  Level FlightAware Approximate
Wed 05:35:56 PM 40.9067 -91.0092 71° East 132 152 7,300  Level Chicago Center
Wed 05:36:00 PM 40.9259 -90.6732 65° Northeast  Level FlightAware Approximate
Wed 05:36:59 PM 40.9269 -90.9522 65° Northeast 140 161 8,300  Level Chicago Center
Wed 05:37:00 PM 40.9454 -90.6167 65° Northeast  Level FlightAware Approximate
Wed 05:38:01 PM 40.9422 -90.9033 68° East 142 163 9,200  Level Chicago Center
Wed 05:39:03 PM 40.9594 -90.8508 67° East 151 174 9,100 -48 Descending Chicago Center
Wed 05:40:05 PM 40.9767 -90.7950 68° East 162 186 9,100  Level Chicago Center
Wed 05:41:07 PM 40.9925 -90.7408 69° East 159 183 9,100 -48 Level Chicago Center
Wed 05:42:09 PM 41.0078 -90.6889 69° East 153 176 9,000  Descending Chicago Center
Wed 05:43:11 PM 41.0258 -90.6261 69° East 152 175 9,100 48 Climbing Chicago Center
Wed 05:44:13 PM 41.0414 -90.5708 70° East 157 181 9,100 -48 Level Chicago Center
Wed 05:45:15 PM 41.0589 -90.5161 67° East 160 184 9,000  Descending Chicago Center
Wed 05:46:18 PM 41.0772 -90.4633 65° Northeast 158 182 9,100  Climbing Chicago Center
Wed 05:47:20 PM 41.0919 -90.4089 70° East 156 180 9,000  Descending Chicago Center
Wed 05:48:22 PM 41.1092 -90.3544 67° East 158 182 9,100  Climbing Chicago Center
Wed 05:49:24 PM 41.1300 -90.2883 67° East 162 186 9,000  Descending Chicago Center
Wed 05:50:26 PM 41.1461 -90.2336 69° East 160 184 9,100 48 Climbing Chicago Center
Wed 05:51:28 PM 41.1625 -90.1781 69° East 161 185 9,100 -48 Level Chicago Center
Wed 05:52:30 PM 41.1803 -90.1228 67° East 162 186 9,000 -48 Descending Chicago Center
Wed 05:53:32 PM 41.1947 -90.0697 70° East 154 177 9,000 48 Level Chicago Center
Wed 05:54:34 PM 41.2108 -90.0164 68° East 155 178 9,100  Climbing Chicago Center
Wed 05:55:36 PM 41.2267 -89.9606 69° East 160 184 9,000  Descending Chicago Center
Wed 05:56:39 PM 41.2433 -89.8939 72° East 159 183 9,100 96 Climbing Chicago Center
Wed 05:57:41 PM 41.2589 -89.8381 70° East 160 184 9,200  Climbing Chicago Center
Wed 05:58:43 PM 41.2756 -89.7839 68° East 159 183 9,100 -97 Descending Chicago Center
Wed 05:59:45 PM 41.2939 -89.7308 65° Northeast 159 183 9,000  Descending Chicago Center
Wed 06:00:47 PM 41.3097 -89.6744 69° East 161 185 9,100 48 Climbing Chicago Center
Wed 06:01:49 PM 41.3242 -89.6208 70° East 156 180 9,100  Level Chicago Center
Wed 06:02:52 PM 41.3439 -89.5592 67° East 153 176 9,100 48 Level Chicago Center
Wed 06:03:54 PM 41.3606 -89.5047 68° East 157 181 9,200  Climbing Chicago Center
Wed 06:04:56 PM 41.3753 -89.4500 70° East 157 181 9,100 -48 Descending Chicago Center
Wed 06:05:58 PM 41.3889 -89.3953 72° East 156 180 9,100 48 Level Chicago Center
Wed 06:07:00 PM 41.4033 -89.3406 71° East 156 180 9,200 48 Climbing Chicago Center
Wed 06:08:02 PM 41.4203 -89.2850 68° East 159 183 9,200 -48 Level Chicago Center
Wed 06:09:04 PM 41.4389 -89.2325 65° Northeast 158 182 9,100 -48 Descending Chicago Center
Wed 06:10:06 PM 41.4592 -89.1644 68° East 160 184 9,100 -145 Level Chicago Center
Wed 06:11:08 PM 41.4772 -89.1081 67° East 166 191 8,800 -339 Descending Chicago Center
Wed 06:12:10 PM 41.4914 -89.0511 72° East 164 189 8,400 -290 Descending Chicago Center
Wed 06:13:12 PM 41.5086 -88.9925 69° East 169 194 8,200 -97 Descending Chicago Center
Wed 06:14:14 PM 41.5233 -88.9375 70° East 160 184 8,200 -48 Level Chicago Center
Wed 06:15:16 PM 41.5372 -88.8831 71° East 158 182 8,100 -48 Descending Chicago Center
Wed 06:16:18 PM 41.5581 -88.8192 66° East 157 181 8,100  Level Chicago Center
Wed 06:17:20 PM 41.5742 -88.7650 68° East 157 181 8,100 -48 Level Chicago Center
Wed 06:18:23 PM 41.5911 -88.7119 67° East 156 180 8,000  Descending Chicago Center
Wed 06:19:25 PM 41.6058 -88.6572 70° East 156 180 8,100 48 Climbing Chicago Center
Wed 06:20:27 PM 41.6200 -88.6022 71° East 157 181 8,100  Level Chicago Center
Wed 06:21:29 PM 41.6386 -88.5394 68° East 153 176 8,100 -48 Level Chicago Center
Wed 06:22:31 PM 41.6542 -88.4858 69° East 154 177 8,000 -48 Descending Chicago Center
Wed 06:23:33 PM 41.6669 -88.4325 72° East 152 175 8,000 48 Level Chicago Center
Wed 06:24:35 PM 41.6800 -88.3803 71° East 148 170 8,100 -48 Climbing Chicago Center
Wed 06:25:37 PM 41.6947 -88.3267 70° East 151 174 7,900 -290 Descending Chicago Center
Wed 06:26:39 PM 41.7158 -88.2794 59° Northeast 148 170 7,500 -336 Descending Chicago Center
Wed 06:27:42 PM 41.7456 -88.2322 50° Northeast 138 159 7,200 -192 Descending Chicago Center
Wed 06:28:44 PM 41.7717 -88.1911 50° Northeast 142 163 7,100 -48 Descending Chicago Center
Wed 06:29:46 PM 41.7958 -88.1472 54° Northeast 145 167 7,100 -97 Level Chicago Center
Wed 06:30:48 PM 41.8197 -88.1053 53° Northeast 143 165 6,900 -48 Descending Chicago Center
Wed 06:31:50 PM 41.8414 -88.0628 56° Northeast 140 161 7,000 92 Climbing Chicago Center
Wed 06:32:59 PM 41.8833 -88.0000 48° Northeast 166 191 7,100  Climbing Chicago TRACON
Wed 06:33:59 PM 41.8833 -87.9333 90° East 174 200 7,000  Descending Chicago TRACON
Wed 06:34:53 PM 41.8833 -87.8833 90° East 170 196 7,100  Climbing Chicago TRACON
Wed 06:35:53 PM 41.8833 -87.8167 90° East 171 197 7,000 -524 Descending Chicago TRACON
Wed 06:36:59 PM 41.8833 -87.7500 90° East 174 200 6,000 -905 Descending Chicago TRACON
Wed 06:37:59 PM 41.9000 -87.7000 66° East 172 198 5,100 -947 Descending Chicago TRACON
Wed 06:38:53 PM 41.9333 -87.6833 20° North 162 186 4,200 -1,000 Descending Chicago TRACON
Wed 06:39:53 PM 41.9667 -87.7167 323° Northwest 155 178 3,200 -850 Descending Chicago TRACON
Wed 06:40:53 PM 41.9667 -87.7667 270° West 144 166 2,500 -730 Descending Chicago TRACON
Wed 06:41:48 PM 41.9667 -87.8167 270° West 147 169 1,800 -793 Descending Chicago TRACON
Wed 06:42:54 PM 41.9667 -87.8833 270° West 127 146 900 -818 Descending Chicago TRACON

Login

Don't have an account? Register now (free) for customized features, flight alerts, and more!